Terminal Aerodrome Forecast
Issued by NWS Twin Cities, MN

Home | Current Version | Previous Version | Graphics & Text | Print | Product List | Glossary On
Versions: 1 2 3 4 5 6 7 8 9 10 11 12 13 14 15 16 17 18 19 20 21 22 23 24 25 26 27 28
000
FTUS43 KMPX 091133
TAFMSP
TAF
KMSP 091133Z 0912/1018 34012G18KT P6SM OVC027
     FM091600 32008KT P6SM BKN250
     FM100000 23006KT P6SM OVC100
     FM100600 23006KT P6SM BKN200
     FM101200 31008KT P6SM BKN120=

USA.gov is the U.S. government's official web portal to all federal, state and local government web resources and services.